GIA224 WAHS-WIII
Flight info
| Callsign | GIA224 |
|---|---|
| Flight time | 0h 47m |
| Altitude | 32000 |
| Route | KIDET W16 IMU |
| Aircraft | B738/M-SDE2E3FGHIRWXY/LB1 |
Departure
| Time | 2026-05-08 11:30 |
|---|---|
| Airport | Jenderal Ahmad Yani Airport (WAHS) |
Arrival
| Time | 2026-05-08 12:17 |
|---|---|
| Airport | Soekarno-Hatta International Airport (WIII) |
| Time | Latitude | Longitude | Altitude | Speed | Heading |
|---|---|---|---|---|---|
| 2026-05-08 11:23 | -6.96786 | 110.37451 | 20 ft | 2 kts | 31° |
| 2026-05-08 11:23 | -6.96801 | 110.37445 | 20 ft | 2 kts | 351° |
| 2026-05-08 11:24 | -6.96812 | 110.37450 | 20 ft | 1 kts | 311° |
| 2026-05-08 11:24 | -6.96813 | 110.37451 | 20 ft | 0 kts | 310° |
| 2026-05-08 11:25 | -6.96809 | 110.37446 | 20 ft | 4 kts | 310° |
| 2026-05-08 11:25 | -6.96768 | 110.37397 | 18 ft | 14 kts | 309° |
| 2026-05-08 11:25 | -6.96688 | 110.37302 | 18 ft | 19 kts | 310° |
| 2026-05-08 11:26 | -6.96626 | 110.37199 | 17 ft | 15 kts | 257° |
| 2026-05-08 11:26 | -6.96701 | 110.37126 | 16 ft | 15 kts | 219° |
| 2026-05-08 11:26 | -6.96785 | 110.37050 | 6 ft | 19 kts | 242° |
| 2026-05-08 11:26 | -6.96734 | 110.36937 | 5 ft | 21 kts | 310° |
| 2026-05-08 11:27 | -6.96625 | 110.36806 | 5 ft | 28 kts | 310° |
| 2026-05-08 11:27 | -6.96489 | 110.36647 | 4 ft | 31 kts | 310° |
| 2026-05-08 11:27 | -6.96355 | 110.36488 | 4 ft | 29 kts | 310° |
| 2026-05-08 11:27 | -6.96274 | 110.36354 | 4 ft | 10 kts | 322° |
| 2026-05-08 11:28 | -6.96255 | 110.36363 | 5 ft | 2 kts | 84° |
| 2026-05-08 11:28 | -6.96265 | 110.36381 | 3 ft | 4 kts | 126° |
| 2026-05-08 11:28 | -6.96273 | 110.36391 | 4 ft | 0 kts | 129° |
| 2026-05-08 11:29 | -6.96300 | 110.36423 | 3 ft | 27 kts | 130° |
| 2026-05-08 11:29 | -6.96590 | 110.36767 | 5 ft | 100 kts | 130° |
| 2026-05-08 11:29 | -6.97187 | 110.37470 | 3 ft | 162 kts | 130° |
| 2026-05-08 11:29 | -6.98017 | 110.38428 | 319 ft | 187 kts | 130° |
| 2026-05-08 11:30 | -6.98713 | 110.39440 | 1366 ft | 173 kts | 105° |
| 2026-05-08 11:30 | -6.98662 | 110.40664 | 1933 ft | 190 kts | 78° |
| 2026-05-08 11:30 | -6.98762 | 110.42077 | 2215 ft | 217 kts | 104° |
| 2026-05-08 11:30 | -6.98728 | 110.43653 | 2470 ft | 239 kts | 68° |
| 2026-05-08 11:31 | -6.97637 | 110.44931 | 2936 ft | 254 kts | 32° |
| 2026-05-08 11:31 | -6.95877 | 110.45341 | 3389 ft | 272 kts | 354° |
| 2026-05-08 11:31 | -6.94144 | 110.44608 | 4240 ft | 276 kts | 319° |
| 2026-05-08 11:31 | -6.92956 | 110.43080 | 5029 ft | 281 kts | 305° |
| 2026-05-08 11:32 | -6.91846 | 110.41447 | 5855 ft | 284 kts | 300° |
| 2026-05-08 11:32 | -6.90885 | 110.39697 | 6660 ft | 287 kts | 297° |
| 2026-05-08 11:32 | -6.89952 | 110.37899 | 7424 ft | 291 kts | 297° |
| 2026-05-08 11:32 | -6.89005 | 110.36088 | 8224 ft | 294 kts | 298° |
| 2026-05-08 11:33 | -6.88031 | 110.34263 | 9006 ft | 298 kts | 299° |
| 2026-05-08 11:33 | -6.87032 | 110.32428 | 9817 ft | 299 kts | 299° |
| 2026-05-08 11:33 | -6.86014 | 110.30586 | 10483 ft | 306 kts | 300° |
| 2026-05-08 11:33 | -6.84951 | 110.28682 | 10977 ft | 317 kts | 300° |
| 2026-05-08 11:34 | -6.83853 | 110.26733 | 11607 ft | 324 kts | 300° |
| 2026-05-08 11:34 | -6.82733 | 110.24753 | 12292 ft | 327 kts | 300° |
| 2026-05-08 11:34 | -6.81600 | 110.22755 | 13000 ft | 330 kts | 300° |
| 2026-05-08 11:34 | -6.80451 | 110.20736 | 13676 ft | 334 kts | 300° |
| 2026-05-08 11:35 | -6.79288 | 110.18694 | 14236 ft | 339 kts | 299° |
| 2026-05-08 11:35 | -6.78110 | 110.16629 | 14827 ft | 342 kts | 299° |
| 2026-05-08 11:35 | -6.76919 | 110.14540 | 15435 ft | 345 kts | 299° |
| 2026-05-08 11:35 | -6.75719 | 110.12438 | 16034 ft | 349 kts | 299° |
| 2026-05-08 11:36 | -6.74503 | 110.10308 | 16625 ft | 352 kts | 299° |
| 2026-05-08 11:36 | -6.73294 | 110.08190 | 17212 ft | 355 kts | 299° |
| 2026-05-08 11:36 | -6.72041 | 110.05996 | 17803 ft | 359 kts | 299° |
| 2026-05-08 11:36 | -6.70809 | 110.03838 | 18326 ft | 362 kts | 299° |
| 2026-05-08 11:37 | -6.69548 | 110.01633 | 18837 ft | 365 kts | 299° |
| 2026-05-08 11:37 | -6.68281 | 109.99414 | 19347 ft | 367 kts | 299° |
| 2026-05-08 11:37 | -6.66987 | 109.97150 | 19856 ft | 370 kts | 299° |
| 2026-05-08 11:37 | -6.65699 | 109.94895 | 20343 ft | 373 kts | 299° |
| 2026-05-08 11:38 | -6.64415 | 109.92649 | 20805 ft | 377 kts | 300° |
| 2026-05-08 11:38 | -6.63107 | 109.90362 | 21348 ft | 378 kts | 300° |
| 2026-05-08 11:38 | -6.61793 | 109.88062 | 21863 ft | 380 kts | 300° |
| 2026-05-08 11:38 | -6.60470 | 109.85749 | 22339 ft | 383 kts | 300° |
| 2026-05-08 11:39 | -6.59139 | 109.83421 | 22818 ft | 386 kts | 300° |
| 2026-05-08 11:39 | -6.57798 | 109.81076 | 23306 ft | 388 kts | 300° |
| 2026-05-08 11:39 | -6.56449 | 109.78718 | 23724 ft | 390 kts | 300° |
| 2026-05-08 11:39 | -6.55094 | 109.76348 | 24096 ft | 393 kts | 300° |
| 2026-05-08 11:40 | -6.53729 | 109.73962 | 24474 ft | 395 kts | 300° |
| 2026-05-08 11:40 | -6.52356 | 109.71561 | 24867 ft | 397 kts | 300° |
| 2026-05-08 11:40 | -6.50977 | 109.69153 | 25270 ft | 398 kts | 300° |
| 2026-05-08 11:40 | -6.49592 | 109.66732 | 25642 ft | 401 kts | 300° |
| 2026-05-08 11:41 | -6.48651 | 109.65089 | 25900 ft | 402 kts | 300° |
| 2026-05-08 11:41 | -6.47253 | 109.62646 | 26268 ft | 404 kts | 300° |
| 2026-05-08 11:41 | -6.45846 | 109.60189 | 26633 ft | 407 kts | 300° |
| 2026-05-08 11:41 | -6.44430 | 109.57716 | 26986 ft | 409 kts | 300° |
| 2026-05-08 11:42 | -6.43010 | 109.55235 | 27339 ft | 411 kts | 300° |
| 2026-05-08 11:42 | -6.41575 | 109.52729 | 27696 ft | 413 kts | 300° |
| 2026-05-08 11:42 | -6.40157 | 109.50252 | 28035 ft | 416 kts | 300° |
| 2026-05-08 11:42 | -6.38711 | 109.47729 | 28366 ft | 418 kts | 300° |
| 2026-05-08 11:43 | -6.37256 | 109.45188 | 28699 ft | 420 kts | 300° |
| 2026-05-08 11:43 | -6.35793 | 109.42635 | 29019 ft | 423 kts | 300° |
| 2026-05-08 11:43 | -6.34322 | 109.40068 | 29340 ft | 425 kts | 300° |
| 2026-05-08 11:43 | -6.32844 | 109.37489 | 29650 ft | 427 kts | 300° |
| 2026-05-08 11:44 | -6.31470 | 109.34835 | 29942 ft | 430 kts | 292° |
| 2026-05-08 11:44 | -6.30547 | 109.31973 | 30205 ft | 431 kts | 283° |
| 2026-05-08 11:44 | -6.30050 | 109.29001 | 30484 ft | 432 kts | 274° |
| 2026-05-08 11:44 | -6.29984 | 109.25978 | 30760 ft | 433 kts | 270° |
| 2026-05-08 11:45 | -6.30012 | 109.22942 | 31021 ft | 435 kts | 269° |
| 2026-05-08 11:45 | -6.30064 | 109.19900 | 31280 ft | 437 kts | 269° |
| 2026-05-08 11:45 | -6.30113 | 109.16838 | 31541 ft | 438 kts | 269° |
| 2026-05-08 11:45 | -6.30151 | 109.13773 | 31795 ft | 438 kts | 270° |
| 2026-05-08 11:46 | -6.30178 | 109.10693 | 31821 ft | 444 kts | 270° |
| 2026-05-08 11:46 | -6.30209 | 109.04422 | 31845 ft | 454 kts | 270° |
| 2026-05-08 11:47 | -6.30229 | 108.98014 | 31845 ft | 463 kts | 270° |
| 2026-05-08 11:47 | -6.30248 | 108.91489 | 31845 ft | 471 kts | 270° |
| 2026-05-08 11:48 | -6.30268 | 108.84862 | 31845 ft | 477 kts | 270° |
| 2026-05-08 11:48 | -6.30102 | 108.78161 | 31830 ft | 482 kts | 278° |
| 2026-05-08 11:49 | -6.28994 | 108.71479 | 31838 ft | 487 kts | 281° |
| 2026-05-08 11:49 | -6.27768 | 108.64815 | 31835 ft | 489 kts | 281° |
| 2026-05-08 11:50 | -6.26576 | 108.58068 | 31839 ft | 491 kts | 280° |
| 2026-05-08 11:50 | -6.25424 | 108.51288 | 31836 ft | 493 kts | 280° |
| 2026-05-08 11:51 | -6.24281 | 108.44488 | 31841 ft | 494 kts | 280° |
| 2026-05-08 11:51 | -6.23135 | 108.37676 | 31839 ft | 495 kts | 280° |
| 2026-05-08 11:52 | -6.21983 | 108.30858 | 31837 ft | 495 kts | 280° |
| 2026-05-08 11:52 | -6.20830 | 108.24039 | 31838 ft | 495 kts | 280° |
| 2026-05-08 11:53 | -6.19675 | 108.17213 | 31834 ft | 494 kts | 280° |
| 2026-05-08 11:53 | -6.18528 | 108.10444 | 31830 ft | 488 kts | 280° |
| 2026-05-08 11:54 | -6.17386 | 108.03711 | 31259 ft | 493 kts | 280° |
| 2026-05-08 11:54 | -6.16810 | 108.00313 | 30562 ft | 492 kts | 280° |
| 2026-05-08 11:54 | -6.16236 | 107.96932 | 29954 ft | 489 kts | 280° |
| 2026-05-08 11:54 | -6.15667 | 107.93576 | 29279 ft | 486 kts | 280° |
| 2026-05-08 11:55 | -6.15101 | 107.90242 | 28673 ft | 481 kts | 280° |
| 2026-05-08 11:55 | -6.14541 | 107.86949 | 28078 ft | 476 kts | 280° |
| 2026-05-08 11:55 | -6.13987 | 107.83688 | 27514 ft | 471 kts | 280° |
| 2026-05-08 11:55 | -6.13437 | 107.80457 | 26936 ft | 467 kts | 280° |
| 2026-05-08 11:56 | -6.12894 | 107.77259 | 26364 ft | 463 kts | 280° |
| 2026-05-08 11:56 | -6.12352 | 107.74079 | 25805 ft | 459 kts | 280° |
| 2026-05-08 11:56 | -6.11814 | 107.70920 | 25226 ft | 456 kts | 280° |
| 2026-05-08 11:56 | -6.11281 | 107.67786 | 24651 ft | 454 kts | 280° |
| 2026-05-08 11:57 | -6.10757 | 107.64714 | 24098 ft | 451 kts | 280° |
| 2026-05-08 11:57 | -6.10229 | 107.61615 | 23542 ft | 449 kts | 279° |
| 2026-05-08 11:57 | -6.09697 | 107.58492 | 22881 ft | 447 kts | 279° |
| 2026-05-08 11:57 | -6.09181 | 107.55469 | 22305 ft | 443 kts | 279° |
| 2026-05-08 11:58 | -6.08664 | 107.52437 | 21740 ft | 438 kts | 279° |
| 2026-05-08 11:58 | -6.08151 | 107.49433 | 21191 ft | 434 kts | 279° |
| 2026-05-08 11:58 | -6.07642 | 107.46451 | 20648 ft | 431 kts | 279° |
| 2026-05-08 11:59 | -6.06638 | 107.40572 | 19555 ft | 424 kts | 279° |
| 2026-05-08 11:59 | -6.06140 | 107.37655 | 19018 ft | 422 kts | 279° |
| 2026-05-08 11:59 | -6.05645 | 107.34762 | 18472 ft | 420 kts | 279° |
| 2026-05-08 11:59 | -6.05153 | 107.31883 | 17904 ft | 418 kts | 279° |
| 2026-05-08 12:00 | -6.04662 | 107.29010 | 17321 ft | 415 kts | 279° |
| 2026-05-08 12:00 | -6.04176 | 107.26174 | 16784 ft | 411 kts | 279° |
| 2026-05-08 12:00 | -6.03695 | 107.23359 | 16258 ft | 407 kts | 279° |
| 2026-05-08 12:00 | -6.03216 | 107.20566 | 15738 ft | 403 kts | 279° |
| 2026-05-08 12:01 | -6.02743 | 107.17800 | 15227 ft | 400 kts | 279° |
| 2026-05-08 12:01 | -6.02273 | 107.15057 | 14710 ft | 397 kts | 279° |
| 2026-05-08 12:01 | -6.01806 | 107.12329 | 14195 ft | 395 kts | 279° |
| 2026-05-08 12:01 | -6.01341 | 107.09621 | 13681 ft | 393 kts | 279° |
| 2026-05-08 12:02 | -6.00879 | 107.06925 | 13117 ft | 390 kts | 279° |
| 2026-05-08 12:02 | -6.00421 | 107.04252 | 12607 ft | 387 kts | 279° |
| 2026-05-08 12:02 | -5.99966 | 107.01604 | 12126 ft | 382 kts | 279° |
| 2026-05-08 12:02 | -5.99518 | 106.98993 | 11711 ft | 376 kts | 279° |
| 2026-05-08 12:03 | -5.99076 | 106.96419 | 11251 ft | 373 kts | 279° |
| 2026-05-08 12:03 | -5.98638 | 106.93868 | 10941 ft | 365 kts | 279° |
| 2026-05-08 12:03 | -5.98214 | 106.91396 | 10782 ft | 354 kts | 279° |
| 2026-05-08 12:03 | -5.97802 | 106.89001 | 10625 ft | 343 kts | 279° |
| 2026-05-08 12:04 | -5.97404 | 106.86682 | 10474 ft | 333 kts | 279° |
| 2026-05-08 12:04 | -5.97016 | 106.84425 | 10339 ft | 323 kts | 279° |
| 2026-05-08 12:04 | -5.96639 | 106.82233 | 10198 ft | 314 kts | 279° |
| 2026-05-08 12:04 | -5.96278 | 106.80101 | 10073 ft | 305 kts | 276° |
| 2026-05-08 12:05 | -5.96391 | 106.78027 | 9960 ft | 293 kts | 253° |
| 2026-05-08 12:05 | -5.97043 | 106.76096 | 9488 ft | 291 kts | 247° |
| 2026-05-08 12:05 | -5.97815 | 106.74233 | 9111 ft | 290 kts | 245° |
| 2026-05-08 12:05 | -5.98610 | 106.72367 | 8745 ft | 291 kts | 245° |
| 2026-05-08 12:06 | -5.99400 | 106.70494 | 8372 ft | 292 kts | 246° |
| 2026-05-08 12:06 | -6.00184 | 106.68605 | 8003 ft | 293 kts | 246° |
| 2026-05-08 12:06 | -6.00961 | 106.66712 | 7640 ft | 294 kts | 246° |
| 2026-05-08 12:06 | -6.01734 | 106.64812 | 7276 ft | 295 kts | 246° |
| 2026-05-08 12:07 | -6.02510 | 106.62899 | 6903 ft | 296 kts | 247° |
| 2026-05-08 12:07 | -6.03282 | 106.60992 | 6517 ft | 291 kts | 247° |
| 2026-05-08 12:07 | -6.04033 | 106.59135 | 6176 ft | 281 kts | 247° |
| 2026-05-08 12:07 | -6.04752 | 106.57357 | 5797 ft | 269 kts | 247° |
| 2026-05-08 12:08 | -6.05438 | 106.55658 | 5454 ft | 257 kts | 247° |
| 2026-05-08 12:08 | -6.06095 | 106.54030 | 5151 ft | 246 kts | 247° |
| 2026-05-08 12:08 | -6.06723 | 106.52474 | 4869 ft | 235 kts | 247° |
| 2026-05-08 12:08 | -6.07325 | 106.50982 | 4593 ft | 226 kts | 247° |
| 2026-05-08 12:09 | -6.07903 | 106.49551 | 4324 ft | 217 kts | 247° |
| 2026-05-08 12:09 | -6.08463 | 106.48165 | 4076 ft | 211 kts | 247° |
| 2026-05-08 12:09 | -6.09010 | 106.46811 | 3838 ft | 207 kts | 247° |
| 2026-05-08 12:09 | -6.09542 | 106.45492 | 3620 ft | 201 kts | 248° |
| 2026-05-08 12:10 | -6.10065 | 106.44198 | 3374 ft | 199 kts | 248° |
| 2026-05-08 12:10 | -6.10656 | 106.42953 | 3127 ft | 198 kts | 231° |
| 2026-05-08 12:10 | -6.11790 | 106.42244 | 2902 ft | 195 kts | 188° |
| 2026-05-08 12:10 | -6.13120 | 106.42290 | 2719 ft | 196 kts | 171° |
| 2026-05-08 12:11 | -6.14477 | 106.42525 | 2488 ft | 200 kts | 169° |
| 2026-05-08 12:11 | -6.15845 | 106.42787 | 2257 ft | 200 kts | 165° |
| 2026-05-08 12:11 | -6.17002 | 106.43495 | 2059 ft | 198 kts | 127° |
| 2026-05-08 12:11 | -6.17515 | 106.44767 | 2038 ft | 199 kts | 92° |
| 2026-05-08 12:12 | -6.17502 | 106.46107 | 2005 ft | 185 kts | 87° |
| 2026-05-08 12:12 | -6.17474 | 106.47361 | 1987 ft | 176 kts | 87° |
| 2026-05-08 12:12 | -6.17439 | 106.48600 | 2006 ft | 180 kts | 84° |
| 2026-05-08 12:12 | -6.17157 | 106.49832 | 2013 ft | 182 kts | 70° |
| 2026-05-08 12:13 | -6.16726 | 106.51035 | 2005 ft | 183 kts | 67° |
| 2026-05-08 12:13 | -6.16268 | 106.52215 | 1987 ft | 179 kts | 67° |
| 2026-05-08 12:13 | -6.15824 | 106.53339 | 1997 ft | 169 kts | 67° |
| 2026-05-08 12:13 | -6.15382 | 106.54449 | 1995 ft | 171 kts | 67° |
| 2026-05-08 12:14 | -6.14944 | 106.55547 | 1895 ft | 166 kts | 66° |
| 2026-05-08 12:14 | -6.14520 | 106.56610 | 1657 ft | 161 kts | 65° |
| 2026-05-08 12:14 | -6.14109 | 106.57641 | 1449 ft | 157 kts | 66° |
| 2026-05-08 12:14 | -6.13707 | 106.58648 | 1267 ft | 155 kts | 66° |
| 2026-05-08 12:15 | -6.13302 | 106.59662 | 1071 ft | 157 kts | 66° |
| 2026-05-08 12:15 | -6.12898 | 106.60676 | 891 ft | 156 kts | 66° |
| 2026-05-08 12:15 | -6.12493 | 106.61691 | 670 ft | 156 kts | 66° |
| 2026-05-08 12:15 | -6.12092 | 106.62697 | 462 ft | 155 kts | 67° |
| 2026-05-08 12:16 | -6.11692 | 106.63708 | 279 ft | 155 kts | 67° |
| 2026-05-08 12:16 | -6.11287 | 106.64712 | 86 ft | 154 kts | 68° |
| 2026-05-08 12:16 | -6.10919 | 106.65637 | 40 ft | 117 kts | 68° |
| 2026-05-08 12:16 | -6.10696 | 106.66193 | 38 ft | 61 kts | 68° |
| 2026-05-08 12:17 | -6.10627 | 106.66474 | 38 ft | 33 kts | 99° |
| 2026-05-08 12:17 | -6.10672 | 106.66641 | 37 ft | 18 kts | 128° |
| 2026-05-08 12:17 | -6.10780 | 106.66678 | 37 ft | 17 kts | 205° |
| 2026-05-08 12:17 | -6.10834 | 106.66576 | 37 ft | 17 kts | 248° |
| 2026-05-08 12:18 | -6.10877 | 106.66471 | 37 ft | 16 kts | 247° |
| 2026-05-08 12:18 | -6.10920 | 106.66361 | 37 ft | 18 kts | 248° |
| 2026-05-08 12:18 | -6.10970 | 106.66236 | 37 ft | 21 kts | 248° |
| 2026-05-08 12:18 | -6.11027 | 106.66095 | 37 ft | 22 kts | 248° |
| 2026-05-08 12:19 | -6.11120 | 106.66001 | 38 ft | 20 kts | 161° |
| 2026-05-08 12:19 | -6.11221 | 106.66057 | 39 ft | 13 kts | 122° |
| 2026-05-08 12:19 | -6.11255 | 106.66144 | 39 ft | 14 kts | 94° |
| 2026-05-08 12:19 | -6.11269 | 106.66242 | 37 ft | 12 kts | 105° |
| 2026-05-08 12:20 | -6.11274 | 106.66254 | 39 ft | 0 kts | 118° |
| 2026-05-08 12:20 | -6.11276 | 106.66257 | 39 ft | 2 kts | 121° |
| 2026-05-08 12:20 | -6.11323 | 106.66285 | 38 ft | 14 kts | 159° |
| 2026-05-08 12:21 | -6.11427 | 106.66326 | 37 ft | 17 kts | 158° |
| 2026-05-08 12:21 | -6.11534 | 106.66367 | 36 ft | 16 kts | 159° |
| 2026-05-08 12:21 | -6.11632 | 106.66415 | 37 ft | 13 kts | 137° |
| 2026-05-08 12:21 | -6.11647 | 106.66491 | 37 ft | 12 kts | 122° |
| 2026-05-08 12:22 | -6.11694 | 106.66522 | 37 ft | 7 kts | 159° |
| 2026-05-08 12:22 | -6.11725 | 106.66534 | 37 ft | 0 kts | 158° |